createdAt,value
2022-10-07T00:00:58.282Z,98720.22
2022-10-07T00:04:00.386Z,98725.09
2022-10-07T00:07:02.469Z,98715.28
2022-10-07T00:10:05.181Z,98720.69
2022-10-07T00:13:08.520Z,98709.50
2022-10-07T00:16:13.204Z,98712.31
2022-10-07T00:19:15.290Z,98712.50
2022-10-07T00:22:17.364Z,98723.69
2022-10-07T00:25:20.204Z,98704.44
2022-10-07T00:28:24.178Z,98686.38
2022-10-07T00:31:29.263Z,98688.53
2022-10-07T00:34:31.317Z,98694.22
2022-10-07T00:37:33.376Z,98706.22
2022-10-07T00:40:35.434Z,98687.31
2022-10-07T00:43:37.506Z,98704.59
2022-10-07T00:46:39.915Z,98692.75
2022-10-07T00:49:52.937Z,98679.50
2022-10-07T00:52:57.668Z,98672.09
2022-10-07T00:56:02.118Z,98687.06
2022-10-07T00:59:05.506Z,98667.66
2022-10-07T01:02:08.285Z,98677.22
2022-10-07T01:05:12.646Z,98670.78
2022-10-07T01:08:15.766Z,98649.72
2022-10-07T01:11:28.889Z,98637.50
2022-10-07T01:14:49.069Z,98648.53
2022-10-07T01:18:01.801Z,98673.84
2022-10-07T01:21:33.349Z,98641.13
2022-10-07T01:25:22.591Z,98625.47
2022-10-07T01:28:37.723Z,98610.59
2022-10-07T01:31:48.388Z,98613.47
2022-10-07T01:34:51.517Z,98657.78
2022-10-07T01:37:56.322Z,98595.22
2022-10-07T01:41:04.606Z,98621.53
2022-10-07T01:44:07.407Z,98603.19
2022-10-07T01:47:09.494Z,98601.09
2022-10-07T01:50:13.099Z,98591.16
2022-10-07T01:53:25.986Z,98576.06
2022-10-07T01:56:46.098Z,98565.00
2022-10-07T02:00:05.651Z,98598.66
2022-10-07T02:03:25.802Z,98566.56
2022-10-07T02:06:40.300Z,98539.34
2022-10-07T02:10:16.327Z,98538.69
2022-10-07T02:14:00.977Z,98563.47
2022-10-07T02:17:19.238Z,98545.00
2022-10-07T02:20:25.241Z,98546.16
2022-10-07T02:23:28.907Z,98523.81
2022-10-07T02:26:32.440Z,98531.75
2022-10-07T02:29:36.042Z,98508.13
2022-10-07T02:32:41.718Z,98542.63
2022-10-07T02:36:20.119Z,98522.97
2022-10-07T02:39:22.334Z,98492.31
2022-10-07T02:42:39.946Z,98506.50
2022-10-07T02:46:17.088Z,98494.97
2022-10-07T02:49:20.743Z,98509.19
2022-10-07T02:52:22.851Z,98477.44
2022-10-07T02:55:26.408Z,98504.84
2022-10-07T02:58:28.542Z,98461.28
2022-10-07T03:01:34.094Z,98472.34
2022-10-07T03:04:36.191Z,98452.69
2022-10-07T03:07:38.350Z,98449.84
2022-10-07T03:10:41.350Z,98437.78
2022-10-07T03:13:45.697Z,98429.94
2022-10-07T03:16:47.924Z,98451.81
2022-10-07T03:19:50.015Z,98431.16
2022-10-07T03:22:52.130Z,98418.81
2022-10-07T03:25:56.194Z,98429.69
2022-10-07T03:29:00.289Z,98432.84
2022-10-07T03:32:03.618Z,98430.63
2022-10-07T03:35:06.450Z,98430.31
2022-10-07T03:38:08.707Z,98423.34
2022-10-07T03:41:11.159Z,98375.28
2022-10-07T03:44:14.550Z,98408.06
2022-10-07T03:47:17.545Z,98398.84
2022-10-07T03:50:19.675Z,98354.47
2022-10-07T03:53:21.798Z,98374.13
2022-10-07T03:56:24.217Z,98365.09
2022-10-07T03:59:26.372Z,98347.19
2022-10-07T04:02:29.211Z,98335.97
2022-10-07T04:05:31.785Z,98366.81
2022-10-07T04:08:35.164Z,98347.13
2022-10-07T04:11:40.579Z,98362.00
2022-10-07T04:14:43.547Z,98388.13
2022-10-07T04:17:47.102Z,98373.81
2022-10-07T04:20:51.166Z,98361.31
2022-10-07T04:23:53.303Z,98392.44
2022-10-07T04:26:55.591Z,98361.31
2022-10-07T04:29:57.771Z,98358.97
2022-10-07T04:33:01.039Z,98369.38
2022-10-07T04:36:08.847Z,98357.81
2022-10-07T04:39:17.361Z,98363.41
2022-10-07T04:42:48.086Z,98365.97
2022-10-07T04:45:55.398Z,98356.88
2022-10-07T04:48:58.854Z,98357.69
2022-10-07T04:52:02.870Z,98367.50
2022-10-07T04:55:12.414Z,98361.69
2022-10-07T04:58:15.547Z,98354.63
2022-10-07T05:01:17.799Z,98360.25
2022-10-07T05:04:22.641Z,98357.53
2022-10-07T05:07:26.591Z,98332.91
2022-10-07T05:10:29.099Z,98336.63
2022-10-07T05:13:31.433Z,98319.88
2022-10-07T05:16:34.074Z,98329.16
2022-10-07T05:19:38.235Z,98324.34
2022-10-07T05:22:40.354Z,98336.31
2022-10-07T05:25:44.020Z,98330.47
2022-10-07T05:28:48.721Z,98322.47
2022-10-07T05:31:54.931Z,98322.75
2022-10-07T05:35:00.112Z,98335.00
2022-10-07T05:38:02.418Z,98311.91
2022-10-07T05:41:07.601Z,98308.44
2022-10-07T05:44:12.814Z,98329.75
2022-10-07T05:47:15.886Z,98321.75
2022-10-07T05:50:18.220Z,98314.06
2022-10-07T05:53:20.355Z,98324.19
2022-10-07T05:56:22.648Z,98308.25
2022-10-07T05:59:26.633Z,98333.97
2022-10-07T06:02:29.508Z,98338.78
2022-10-07T06:05:32.298Z,98318.59
2022-10-07T06:08:35.311Z,98319.09
2022-10-07T06:11:56.136Z,98287.72
2022-10-07T06:14:59.424Z,98294.13
2022-10-07T06:18:02.008Z,98309.72
2022-10-07T06:21:04.499Z,98327.59
2022-10-07T06:24:07.409Z,98329.44
2022-10-07T06:27:10.349Z,98301.50
2022-10-07T06:30:13.223Z,98303.69
2022-10-07T06:33:16.159Z,98305.03
2022-10-07T06:36:18.571Z,98316.22
2022-10-07T06:39:22.306Z,98311.38
2022-10-07T06:42:25.928Z,98311.41
2022-10-07T06:45:34.037Z,98306.66
2022-10-07T06:48:37.339Z,98300.25
2022-10-07T06:51:40.006Z,98289.88
2022-10-07T06:54:42.330Z,98315.38
2022-10-07T06:57:56.201Z,98298.63
2022-10-07T07:01:02.367Z,98291.66
2022-10-07T07:04:05.034Z,98287.72
2022-10-07T07:07:07.191Z,98283.47
2022-10-07T07:10:09.611Z,98284.53
2022-10-07T07:13:15.996Z,98285.09
2022-10-07T07:16:18.300Z,98288.53
2022-10-07T07:19:20.609Z,98293.84
2022-10-07T07:22:22.719Z,98292.25
2022-10-07T07:25:25.553Z,98281.63
2022-10-07T07:28:27.697Z,98276.28
2022-10-07T07:31:32.735Z,98286.13
2022-10-07T07:34:36.389Z,98272.78
2022-10-07T07:37:39.078Z,98278.44
2022-10-07T07:40:41.272Z,98289.56
2022-10-07T07:43:47.196Z,98285.56
2022-10-07T07:46:52.120Z,98274.09
2022-10-07T07:49:55.820Z,98265.09
2022-10-07T07:53:05.739Z,98273.09
2022-10-07T07:56:08.155Z,98273.13
2022-10-07T07:59:11.197Z,98284.47
2022-10-07T08:02:14.381Z,98277.34
2022-10-07T08:05:23.669Z,98246.53
2022-10-07T08:08:29.726Z,98278.72
2022-10-07T08:11:35.043Z,98255.31
2022-10-07T08:14:39.008Z,98242.75
2022-10-07T08:17:41.868Z,98241.31
2022-10-07T08:20:44.607Z,98245.59
2022-10-07T08:23:49.974Z,98245.91
2022-10-07T08:26:55.986Z,98258.34
2022-10-07T08:29:58.542Z,98257.72
2022-10-07T08:33:01.620Z,98256.59
2022-10-07T08:36:04.883Z,98256.22
2022-10-07T08:39:07.326Z,98252.94
2022-10-07T08:42:15.256Z,98286.53
2022-10-07T08:45:31.888Z,98266.44
2022-10-07T08:48:35.054Z,98275.66
2022-10-07T08:51:45.203Z,98305.84
2022-10-07T08:54:47.269Z,98295.03
2022-10-07T08:58:05.544Z,98338.78
2022-10-07T09:01:19.423Z,98309.47
2022-10-07T09:04:58.899Z,98311.72
2022-10-07T09:08:11.036Z,98305.59
2022-10-07T09:11:18.188Z,98292.00
2022-10-07T09:14:40.430Z,98275.81
2022-10-07T09:17:57.591Z,98270.06
2022-10-07T09:20:59.672Z,98282.59
2022-10-07T09:24:24.560Z,98272.50
2022-10-07T09:27:26.781Z,98269.03
2022-10-07T09:30:29.593Z,98264.97
2022-10-07T09:33:31.759Z,98240.72
2022-10-07T09:36:34.135Z,98238.88
2022-10-07T09:39:36.304Z,98242.44
2022-10-07T09:42:44.163Z,98235.06
2022-10-07T09:45:47.174Z,98248.19
2022-10-07T09:48:55.751Z,98235.84
2022-10-07T09:52:05.736Z,98230.56
2022-10-07T09:55:37.216Z,98223.41
2022-10-07T09:58:39.255Z,98219.53
2022-10-07T10:01:41.938Z,98213.38
2022-10-07T10:04:57.250Z,98235.81
2022-10-07T10:08:27.453Z,98250.09
2022-10-07T10:11:29.532Z,98252.13
2022-10-07T10:14:52.149Z,98249.34
2022-10-07T10:17:57.096Z,98261.09
2022-10-07T10:21:11.215Z,98253.66
2022-10-07T10:24:15.410Z,98246.75
2022-10-07T10:27:20.086Z,98257.91
2022-10-07T10:30:22.614Z,98256.31
2022-10-07T10:33:41.070Z,98257.66
2022-10-07T10:36:45.595Z,98271.75
2022-10-07T10:39:59.488Z,98247.81
2022-10-07T10:43:27.513Z,98253.94
2022-10-07T10:46:52.041Z,98256.56
2022-10-07T10:50:02.079Z,98265.09
2022-10-07T10:53:25.954Z,98276.81
2022-10-07T10:57:00.578Z,98259.50
2022-10-07T11:00:13.195Z,98265.94
2022-10-07T11:03:24.523Z,98272.03
2022-10-07T11:06:28.552Z,98280.53
2022-10-07T11:09:43.053Z,98280.78
2022-10-07T11:12:48.778Z,98307.31
2022-10-07T11:15:57.104Z,98309.50
2022-10-07T11:19:19.247Z,98300.84
2022-10-07T11:22:32.900Z,98290.13
2022-10-07T11:25:38.799Z,98293.09
2022-10-07T11:28:42.064Z,98299.50
2022-10-07T11:31:53.015Z,98295.16
2022-10-07T11:35:22.293Z,98292.78
2022-10-07T11:38:29.566Z,98296.69
2022-10-07T11:41:41.318Z,98305.56
2022-10-07T11:44:54.573Z,98303.09
2022-10-07T11:48:02.255Z,98293.88
2022-10-07T11:51:05.943Z,98269.56
2022-10-07T11:54:12.512Z,98305.97
2022-10-07T11:57:43.634Z,98310.72
2022-10-07T12:00:45.775Z,98308.31
2022-10-07T12:03:47.964Z,98299.28
2022-10-07T12:07:30.641Z,98303.63
2022-10-07T12:10:33.673Z,98312.25
2022-10-07T12:13:38.715Z,98298.09
2022-10-07T12:16:42.911Z,98314.19
2022-10-07T12:19:45.401Z,98293.78
2022-10-07T12:22:47.804Z,98280.44
2022-10-07T12:25:59.898Z,98293.16
2022-10-07T12:29:02.110Z,98278.47
2022-10-07T12:32:04.858Z,98278.72
2022-10-07T12:35:35.073Z,98263.63
2022-10-07T12:38:37.770Z,98250.91
2022-10-07T12:41:40.863Z,98263.41
2022-10-07T12:44:51.302Z,98235.94
2022-10-07T12:47:55.803Z,98259.41
2022-10-07T12:50:57.868Z,98241.16
2022-10-07T12:54:00.032Z,98250.44
2022-10-07T12:57:02.334Z,98243.38
2022-10-07T13:00:25.991Z,98242.63
2022-10-07T13:03:54.174Z,98240.59
2022-10-07T13:07:14.408Z,98235.66
2022-10-07T13:10:28.600Z,98265.19
2022-10-07T13:14:07.086Z,98273.59
2022-10-07T13:17:43.698Z,98252.91
2022-10-07T13:20:57.564Z,98267.72
2022-10-07T13:23:59.616Z,98247.84
2022-10-07T13:27:01.710Z,98259.78
2022-10-07T13:30:05.023Z,98241.47
2022-10-07T13:33:22.967Z,98277.09
2022-10-07T13:36:27.631Z,98251.72
2022-10-07T13:39:30.717Z,98252.63
2022-10-07T13:42:33.230Z,98277.00
2022-10-07T13:45:45.739Z,98264.66
2022-10-07T13:48:48.951Z,98245.50
2022-10-07T13:51:55.524Z,98269.56
2022-10-07T13:54:58.370Z,98241.63
2022-10-07T13:58:02.963Z,98280.88
2022-10-07T14:01:05.820Z,98255.69
2022-10-07T14:04:11.491Z,98256.44
2022-10-07T14:07:13.410Z,98254.47
2022-10-07T14:10:15.557Z,98262.03
2022-10-07T14:13:17.590Z,98247.13
2022-10-07T14:16:22.205Z,98269.34
2022-10-07T14:19:24.498Z,98260.22
2022-10-07T14:22:53.703Z,98264.38
2022-10-07T14:26:06.886Z,98257.69
2022-10-07T14:29:27.558Z,98256.84
2022-10-07T14:32:48.841Z,98266.75
2022-10-07T14:36:11.715Z,98254.53
2022-10-07T14:39:28.807Z,98243.25
2022-10-07T14:42:33.394Z,98266.75
2022-10-07T14:45:35.610Z,98261.53
2022-10-07T14:48:38.521Z,98264.28
2022-10-07T14:51:40.575Z,98255.78
2022-10-07T14:54:42.654Z,98268.50
2022-10-07T14:57:46.584Z,98284.22
2022-10-07T15:00:48.650Z,98296.75
2022-10-07T15:03:51.321Z,98289.69
2022-10-07T15:06:54.180Z,98300.06
2022-10-07T15:09:56.255Z,98295.16
2022-10-07T15:12:59.481Z,98285.50
2022-10-07T15:16:01.536Z,98294.34
2022-10-07T15:19:04.262Z,98286.34
2022-10-07T15:22:06.410Z,98291.03
2022-10-07T15:25:10.170Z,98285.22
2022-10-07T15:28:12.234Z,98311.94
2022-10-07T15:31:14.462Z,98313.72
2022-10-07T15:34:16.708Z,98293.47
2022-10-07T15:37:19.404Z,98291.66
2022-10-07T15:40:21.473Z,98291.44
2022-10-07T15:43:23.815Z,98308.69
2022-10-07T15:46:27.801Z,98281.19
2022-10-07T15:49:30.259Z,98277.41
2022-10-07T15:52:32.330Z,98295.28
2022-10-07T15:55:34.447Z,98289.63
2022-10-07T15:58:36.518Z,98296.38
2022-10-07T16:01:38.741Z,98292.16
2022-10-07T16:04:42.897Z,98291.06
2022-10-07T16:07:45.203Z,98300.22
2022-10-07T16:10:47.246Z,98304.28
2022-10-07T16:13:49.421Z,98290.97
2022-10-07T16:16:51.476Z,98285.50
2022-10-07T16:19:53.516Z,98279.19
2022-10-07T16:22:55.623Z,98281.34
2022-10-07T16:26:06.266Z,98292.63
2022-10-07T16:29:32.406Z,98303.31
2022-10-07T16:32:34.474Z,98306.00
2022-10-07T16:35:36.563Z,98296.56
2022-10-07T16:38:38.659Z,98299.25
2022-10-07T16:41:44.165Z,98303.47
2022-10-07T16:44:50.629Z,98301.00
2022-10-07T16:47:53.067Z,98309.28
2022-10-07T16:50:55.636Z,98299.44
2022-10-07T16:54:01.765Z,98314.41
2022-10-07T16:57:03.938Z,98309.34
2022-10-07T17:00:07.095Z,98312.75
2022-10-07T17:03:09.642Z,98319.19
2022-10-07T17:06:13.791Z,98331.13
2022-10-07T17:09:17.448Z,98337.97
2022-10-07T17:12:19.516Z,98337.94
2022-10-07T17:15:21.675Z,98337.38
2022-10-07T17:18:26.095Z,98347.63
2022-10-07T17:21:28.993Z,98351.78
2022-10-07T17:24:31.160Z,98361.91
2022-10-07T17:27:33.806Z,98356.75
2022-10-07T17:30:36.270Z,98367.81
2022-10-07T17:33:43.368Z,98369.78
2022-10-07T17:36:45.877Z,98364.41
2022-10-07T17:39:48.333Z,98377.31
2022-10-07T17:42:51.250Z,98374.91
2022-10-07T17:45:54.355Z,98372.00
2022-10-07T17:48:59.737Z,98379.78
2022-10-07T17:52:03.876Z,98383.00
2022-10-07T17:55:07.118Z,98385.59
2022-10-07T17:58:09.270Z,98387.25
2022-10-07T18:01:22.484Z,98397.25
2022-10-07T18:04:25.377Z,98402.06
2022-10-07T18:07:27.510Z,98414.25
2022-10-07T18:10:29.655Z,98426.31
2022-10-07T18:13:51.211Z,98439.47
2022-10-07T18:16:53.576Z,98446.22
2022-10-07T18:19:55.672Z,98452.25
2022-10-07T18:22:58.885Z,98446.34
2022-10-07T18:26:10.888Z,98452.19
2022-10-07T18:29:12.957Z,98454.31
2022-10-07T18:32:15.047Z,98463.28
2022-10-07T18:35:18.577Z,98430.53
2022-10-07T18:38:20.666Z,98437.78
2022-10-07T18:41:22.958Z,98440.44
2022-10-07T18:44:25.615Z,98437.78
2022-10-07T18:47:27.657Z,98428.34
2022-10-07T18:50:33.476Z,98425.25
2022-10-07T18:53:37.751Z,98433.28
2022-10-07T18:56:41.276Z,98434.44
2022-10-07T18:59:43.819Z,98432.69
2022-10-07T19:02:50.792Z,98438.69
2022-10-07T19:05:52.901Z,98445.00
2022-10-07T19:09:01.314Z,98452.72
2022-10-07T19:12:03.525Z,98450.44
2022-10-07T19:15:07.187Z,98454.81
2022-10-07T19:18:10.061Z,98454.72
2022-10-07T19:21:12.634Z,98459.56
2022-10-07T19:24:15.426Z,98452.81
2022-10-07T19:27:17.488Z,98454.19
2022-10-07T19:30:19.593Z,98460.75
2022-10-07T19:33:22.110Z,98465.34
2022-10-07T19:36:24.314Z,98461.38
2022-10-07T19:39:27.035Z,98471.03
2022-10-07T19:42:29.776Z,98468.19
2022-10-07T19:45:34.484Z,98474.47
2022-10-07T19:48:36.907Z,98489.13
2022-10-07T19:51:40.378Z,98481.63
2022-10-07T19:54:45.775Z,98493.81
2022-10-07T19:57:48.400Z,98490.97
2022-10-07T20:00:50.861Z,98490.97
2022-10-07T20:04:18.839Z,98497.88
2022-10-07T20:07:20.946Z,98507.88
2022-10-07T20:10:24.141Z,98498.31
2022-10-07T20:13:26.708Z,98513.28
2022-10-07T20:16:29.482Z,98500.16
2022-10-07T20:19:31.571Z,98500.03
2022-10-07T20:22:34.440Z,98512.94
2022-10-07T20:25:39.657Z,98517.28
2022-10-07T20:28:41.940Z,98522.75
2022-10-07T20:31:44.402Z,98522.75
2022-10-07T20:34:50.078Z,98522.69
2022-10-07T20:37:52.187Z,98530.00
2022-10-07T20:41:12.971Z,98538.38
2022-10-07T20:44:16.043Z,98531.13
2022-10-07T20:47:18.658Z,98538.19
2022-10-07T20:50:21.430Z,98533.84
2022-10-07T20:53:23.694Z,98539.31
2022-10-07T20:56:25.802Z,98542.91
2022-10-07T20:59:29.355Z,98543.34
2022-10-07T21:02:31.426Z,98531.38
2022-10-07T21:05:33.579Z,98548.44
2022-10-07T21:08:35.626Z,98553.78
2022-10-07T21:11:37.918Z,98537.19
2022-10-07T21:14:40.246Z,98535.13
2022-10-07T21:17:44.493Z,98540.41
2022-10-07T21:20:56.799Z,98527.75
2022-10-07T21:23:59.159Z,98534.94
2022-10-07T21:27:06.589Z,98551.44
2022-10-07T21:30:10.894Z,98544.03
2022-10-07T21:33:13.234Z,98551.91
2022-10-07T21:36:18.287Z,98540.56
2022-10-07T21:39:20.514Z,98538.44
2022-10-07T21:42:22.626Z,98533.56
2022-10-07T21:45:24.693Z,98524.84
2022-10-07T21:48:30.118Z,98532.75
2022-10-07T21:51:34.368Z,98534.84
2022-10-07T21:54:37.484Z,98551.06
2022-10-07T21:57:41.921Z,98539.84
2022-10-07T22:00:44.163Z,98539.03
2022-10-07T22:03:46.391Z,98546.78
2022-10-07T22:07:09.213Z,98558.22
2022-10-07T22:10:12.226Z,98550.56
2022-10-07T22:13:14.454Z,98552.28
2022-10-07T22:16:17.429Z,98564.06
2022-10-07T22:19:19.559Z,98578.31
2022-10-07T22:22:21.587Z,98568.38
2022-10-07T22:25:27.173Z,98558.16
2022-10-07T22:28:29.400Z,98570.19
2022-10-07T22:31:32.062Z,98579.34
2022-10-07T22:34:52.742Z,98582.72
2022-10-07T22:37:55.539Z,98598.53
2022-10-07T22:40:57.673Z,98585.94
2022-10-07T22:44:00.196Z,98603.03
2022-10-07T22:47:05.306Z,98593.66
2022-10-07T22:50:08.276Z,98596.91
2022-10-07T22:53:10.324Z,98600.03
2022-10-07T22:56:15.845Z,98605.06
2022-10-07T22:59:18.008Z,98599.22
2022-10-07T23:02:20.325Z,98592.22
2022-10-07T23:05:22.508Z,98604.16
2022-10-07T23:08:25.050Z,98609.28
2022-10-07T23:11:28.002Z,98609.09
2022-10-07T23:14:30.162Z,98605.63
2022-10-07T23:17:32.319Z,98604.69
2022-10-07T23:20:34.387Z,98588.22
2022-10-07T23:23:37.794Z,98602.38
2022-10-07T23:26:39.942Z,98605.06
2022-10-07T23:29:42.028Z,98623.66
2022-10-07T23:32:46.180Z,98624.31
2022-10-07T23:35:48.346Z,98621.78
2022-10-07T23:38:50.926Z,98614.00
2022-10-07T23:41:53.189Z,98623.50
2022-10-07T23:44:55.310Z,98608.97
2022-10-07T23:47:57.393Z,98622.22
2022-10-07T23:50:59.475Z,98620.22
2022-10-07T23:54:02.673Z,98621.41
2022-10-07T23:57:04.786Z,98634.97
